Time;durP1;ratioP1;P1;durP2;ratioP2;P2;SDS_P1;SDS_P2;PMS_P1;PMS_P2;Temp;Humidity;BMP_temperature;BMP_pressure;BME280_temperature;BME280_humidity;BME280_pressure;Samples;Min_cycle;Max_cycle;Signal;HPM_P1;HPM_P2
2022/02/14 02:13:51;;;;;;;8.73;4.03;;;9.70;87.80;;;;;;5024008;28;20103;-52
2022/02/14 02:16:17;;;;;;;12.73;3.88;;;9.70;88.20;;;;;;5034012;28;20049;-56
2022/02/14 02:18:43;;;;;;;11.70;3.90;;;9.70;87.50;;;;;;5034833;28;20094;-51
2022/02/14 02:21:09;;;;;;;10.65;3.67;;;9.80;87.40;;;;;;5034703;28;20045;-50
2022/02/14 02:23:39;;;;;;;8.68;3.47;;;9.80;87.60;;;;;;5034603;28;20095;-50
2022/02/14 02:26:05;;;;;;;8.70;3.92;;;9.80;87.30;;;;;;5034024;28;20037;-54
2022/02/14 02:28:31;;;;;;;10.38;3.60;;;9.80;87.40;;;;;;5027007;28;20701;-50
2022/02/14 02:31:01;;;;;;;9.40;3.75;;;9.80;87.90;;;;;;5009875;28;20072;-51
2022/02/14 02:33:29;;;;;;;11.57;4.22;;;9.80;87.80;;;;;;5025334;28;20049;-51
2022/02/14 02:35:55;;;;;;;11.40;4.00;;;9.70;87.90;;;;;;5034462;28;20048;-51
2022/02/14 02:38:20;;;;;;;7.70;3.30;;;9.70;88.10;;;;;;5028988;28;20037;-51
2022/02/14 02:40:46;;;;;;;9.75;3.40;;;9.70;88.00;;;;;;5033282;28;20770;-51
2022/02/14 02:43:11;;;;;;;9.70;3.78;;;9.70;88.10;;;;;;5017283;28;20048;-54
2022/02/14 02:45:37;;;;;;;8.23;3.58;;;9.70;87.60;;;;;;5014295;28;20505;-51
2022/02/14 02:48:03;;;;;;;12.20;4.00;;;9.70;87.80;;;;;;5021022;28;20080;-51
2022/02/14 02:50:29;;;;;;;9.63;3.90;;;9.80;87.50;;;;;;5030167;28;20406;-51
2022/02/14 02:52:55;;;;;;;13.35;3.83;;;9.70;87.90;;;;;;5024921;28;20046;-51
2022/02/14 02:55:21;;;;;;;7.75;3.40;;;9.70;88.10;;;;;;5031850;28;20045;-50
2022/02/14 02:57:47;;;;;;;9.23;3.30;;;9.70;88.40;;;;;;5031784;28;20059;-51
2022/02/14 03:00:13;;;;;;;7.70;3.40;;;9.70;88.30;;;;;;5027012;28;20545;-50
2022/02/14 03:02:38;;;;;;;9.10;3.40;;;9.70;88.30;;;;;;5014064;28;20045;-52
2022/02/14 03:05:04;;;;;;;10.15;3.70;;;9.70;88.40;;;;;;5024789;28;20124;-55
2022/02/14 03:07:30;;;;;;;9.90;3.45;;;9.70;88.20;;;;;;5023575;28;20048;-52
2022/02/14 03:09:56;;;;;;;13.65;3.80;;;9.80;88.20;;;;;;5032003;28;20037;-51
2022/02/14 03:12:21;;;;;;;8.77;3.50;;;9.90;88.10;;;;;;5033461;28;20083;-51
2022/02/14 03:14:47;;;;;;;10.07;3.40;;;9.90;87.80;;;;;;5033334;28;20094;-51
2022/02/14 03:17:13;;;;;;;8.07;3.42;;;10.00;87.50;;;;;;5033185;28;20062;-50
2022/02/14 03:19:39;;;;;;;7.55;3.28;;;9.90;87.70;;;;;;5031830;28;20053;-52
2022/02/14 03:22:05;;;;;;;11.10;3.45;;;10.00;87.30;;;;;;5033569;28;20045;-55
2022/02/14 03:24:31;;;;;;;6.90;3.10;;;10.00;87.50;;;;;;5033434;28;20049;-52
2022/02/14 03:26:56;;;;;;;6.30;3.00;;;10.00;87.60;;;;;;5033150;28;20379;-52
2022/02/14 03:29:22;;;;;;;7.95;3.45;;;10.10;87.20;;;;;;5032924;28;20083;-51
2022/02/14 03:31:47;;;;;;;11.95;3.83;;;10.10;87.10;;;;;;5014976;28;20037;-51
2022/02/14 03:34:13;;;;;;;7.88;3.30;;;10.10;87.00;;;;;;5033385;28;20037;-53
2022/02/14 03:36:39;;;;;;;10.15;3.47;;;10.10;87.30;;;;;;5033045;28;20049;-51
2022/02/14 03:39:05;;;;;;;8.07;3.47;;;10.10;87.20;;;;;;5032630;28;20056;-50
2022/02/14 03:41:31;;;;;;;12.30;3.85;;;10.10;87.10;;;;;;5031602;28;20406;-50
2022/02/14 03:43:56;;;;;;;12.70;3.53;;;10.00;87.30;;;;;;5033193;28;20041;-50
2022/02/14 03:46:22;;;;;;;7.97;3.72;;;10.00;87.60;;;;;;5033037;28;20084;-51
2022/02/14 03:48:48;;;;;;;9.82;3.30;;;9.90;87.80;;;;;;5032698;28;20034;-53
2022/02/14 03:51:13;;;;;;;8.80;3.47;;;9.90;87.80;;;;;;5032959;28;20190;-51
2022/02/14 03:53:39;;;;;;;13.50;4.20;;;9.90;87.50;;;;;;5032960;28;20553;-50
2022/02/14 03:56:06;;;;;;;12.70;3.30;;;9.90;87.70;;;;;;5032353;28;20049;-50
2022/02/14 03:58:33;;;;;;;11.40;3.42;;;9.80;87.90;;;;;;5032497;28;20041;-50
2022/02/14 04:00:58;;;;;;;9.35;3.47;;;9.80;88.00;;;;;;5032617;28;20049;-52
2022/02/14 04:03:24;;;;;;;11.75;3.35;;;9.90;87.50;;;;;;5032015;28;20053;-54
2022/02/14 04:05:50;;;;;;;9.30;3.33;;;9.80;87.70;;;;;;5032696;28;20433;-53
2022/02/14 04:08:16;;;;;;;9.10;3.33;;;9.80;88.20;;;;;;5032416;28;20038;-54
2022/02/14 04:10:41;;;;;;;10.52;3.20;;;9.80;88.10;;;;;;5031909;28;20030;-57
2022/02/14 04:13:08;;;;;;;7.50;2.97;;;9.90;87.60;;;;;;5032165;28;20100;-56
2022/02/14 04:15:33;;;;;;;7.78;3.05;;;9.90;87.80;;;;;;5032328;28;20030;-55
2022/02/14 04:17:59;;;;;;;7.22;3.35;;;10.00;87.60;;;;;;5031146;28;20432;-55
2022/02/14 04:20:25;;;;;;;10.20;2.97;;;10.00;87.50;;;;;;5031909;28;20063;-55
2022/02/14 04:22:51;;;;;;;7.10;2.92;;;10.00;87.80;;;;;;5032225;28;20083;-56
2022/02/14 04:25:16;;;;;;;9.25;3.30;;;9.90;87.90;;;;;;5032278;28;20040;-57
2022/02/14 04:27:43;;;;;;;8.80;3.20;;;9.90;88.10;;;;;;5032140;28;20041;-53
2022/02/14 04:30:10;;;;;;;11.63;2.90;;;9.90;87.70;;;;;;5030711;28;20628;-54
2022/02/14 04:32:36;;;;;;;12.05;3.15;;;10.00;87.80;;;;;;5032101;28;20042;-52
2022/02/14 04:35:02;;;;;;;8.30;3.00;;;10.00;87.70;;;;;;5032054;28;20048;-55
2022/02/14 04:37:28;;;;;;;9.40;2.97;;;10.00;87.50;;;;;;5030646;28;20391;-54
2022/02/14 04:39:53;;;;;;;8.73;2.92;;;10.00;87.50;;;;;;5031576;28;20048;-55
2022/02/14 04:42:19;;;;;;;10.73;3.13;;;10.10;87.00;;;;;;5031961;28;20470;-54
2022/02/14 04:44:44;;;;;;;10.65;3.38;;;10.20;87.10;;;;;;5032159;28;20041;-53
2022/02/14 04:47:10;;;;;;;10.00;2.53;;;10.10;87.10;;;;;;5031507;28;20033;-55
2022/02/14 04:49:36;;;;;;;11.65;3.20;;;10.10;87.10;;;;;;5031759;28;20116;-55
2022/02/14 04:52:02;;;;;;;7.38;2.97;;;10.10;87.00;;;;;;5031908;28;20036;-53
2022/02/14 04:54:27;;;;;;;7.53;3.38;;;10.10;87.20;;;;;;5031677;28;20045;-55
2022/02/14 04:56:53;;;;;;;8.90;2.78;;;10.10;87.10;;;;;;5031638;28;20037;-55
2022/02/14 04:59:19;;;;;;;9.73;3.28;;;10.20;87.00;;;;;;5031864;28;20042;-54
2022/02/14 05:01:44;;;;;;;10.13;3.05;;;10.20;86.90;;;;;;5030194;28;20064;-55
2022/02/14 05:04:10;;;;;;;8.77;3.15;;;10.20;86.80;;;;;;5031635;28;20124;-54
2022/02/14 05:06:36;;;;;;;7.75;3.30;;;10.20;87.00;;;;;;5031480;28;20049;-53
2022/02/14 05:09:02;;;;;;;10.80;3.25;;;10.10;86.80;;;;;;5031299;28;20033;-54
2022/02/14 05:11:27;;;;;;;8.93;3.28;;;10.20;86.60;;;;;;5013841;28;20033;-54
2022/02/14 05:13:53;;;;;;;9.50;3.53;;;10.20;86.90;;;;;;5030855;28;20101;-55
2022/02/14 05:16:23;;;;;;;10.25;4.07;;;10.10;87.10;;;;;;5031372;28;20045;-54
2022/02/14 05:18:50;;;;;;;9.88;3.10;;;10.20;86.90;;;;;;5030270;28;20049;-52
2022/02/14 05:21:16;;;;;;;7.32;2.80;;;10.20;86.50;;;;;;5031051;28;20033;-55
2022/02/14 05:23:42;;;;;;;10.05;3.33;;;10.20;86.50;;;;;;5029926;28;20509;-52
2022/02/14 05:26:08;;;;;;;6.95;3.00;;;10.20;87.30;;;;;;5013608;28;20029;-53
2022/02/14 05:28:34;;;;;;;10.15;3.17;;;10.20;87.10;;;;;;5031510;28;20065;-55
2022/02/14 05:30:59;;;;;;;9.13;2.80;;;10.10;87.40;;;;;;5006993;28;20065;-55
2022/02/14 05:33:25;;;;;;;8.70;3.15;;;10.20;87.10;;;;;;5032087;28;20057;-53
2022/02/14 05:35:51;;;;;;;7.90;2.90;;;10.20;86.80;;;;;;5031305;28;20044;-55
2022/02/14 05:38:17;;;;;;;6.80;2.67;;;10.20;86.80;;;;;;5030090;28;20136;-54
2022/02/14 05:40:42;;;;;;;7.45;3.13;;;10.30;86.60;;;;;;5031073;28;20045;-54
2022/02/14 05:43:08;;;;;;;6.38;2.65;;;10.30;86.60;;;;;;4997214;28;20033;-52
2022/02/14 05:45:34;;;;;;;7.50;3.03;;;10.30;86.60;;;;;;5031521;28;20070;-54
2022/02/14 05:47:59;;;;;;;9.15;3.30;;;10.30;86.60;;;;;;5029057;28;20548;-55
2022/02/14 05:50:25;;;;;;;6.72;2.80;;;10.30;86.30;;;;;;5030837;28;20068;-55
2022/02/14 05:52:50;;;;;;;10.48;3.00;;;10.30;86.50;;;;;;5029906;28;20088;-54
2022/02/14 05:55:16;;;;;;;7.18;2.67;;;10.30;86.80;;;;;;5013277;28;20077;-53
2022/02/14 05:57:42;;;;;;;6.22;2.67;;;10.30;86.20;;;;;;5013143;28;20123;-52
2022/02/14 06:00:09;;;;;;;10.80;2.70;;;10.40;85.80;;;;;;5031002;28;20494;-55
2022/02/14 06:02:35;;;;;;;6.85;2.97;;;10.40;85.60;;;;;;5031059;28;20482;-55
2022/02/14 06:05:01;;;;;;;8.52;2.97;;;10.30;86.30;;;;;;5030085;28;20048;-56
2022/02/14 06:07:26;;;;;;;6.93;2.80;;;10.40;86.10;;;;;;5031194;28;20493;-55
2022/02/14 06:09:52;;;;;;;9.13;2.90;;;10.30;86.30;;;;;;5038427;28;20042;-56
2022/02/14 06:12:18;;;;;;;7.75;2.88;;;10.40;86.10;;;;;;5030971;28;20497;-57
2022/02/14 06:14:43;;;;;;;6.20;2.70;;;10.40;86.20;;;;;;5031240;28;20501;-55
2022/02/14 06:17:09;;;;;;;6.78;2.70;;;10.40;86.20;;;;;;5030923;28;20034;-55
2022/02/14 06:19:34;;;;;;;13.63;2.65;;;10.40;86.10;;;;;;5030512;28;20095;-57
2022/02/14 06:22:00;;;;;;;7.72;2.60;;;10.40;86.10;;;;;;5029478;28;20076;-57
2022/02/14 06:24:26;;;;;;;5.50;2.60;;;10.40;86.30;;;;;;5031327;28;20490;-53
2022/02/14 06:26:51;;;;;;;8.95;2.78;;;10.40;86.40;;;;;;5034333;28;20041;-55
2022/02/14 06:29:17;;;;;;;5.47;2.50;;;10.50;86.00;;;;;;5034436;28;20147;-55
2022/02/14 06:31:42;;;;;;;6.57;2.50;;;10.40;86.50;;;;;;5032636;28;20037;-56
2022/02/14 06:34:08;;;;;;;6.38;2.38;;;10.40;86.40;;;;;;5016564;28;20033;-55
2022/02/14 06:36:34;;;;;;;8.30;2.42;;;10.50;86.20;;;;;;5033061;28;20057;-53
2022/02/14 06:39:02;;;;;;;7.13;2.53;;;10.50;85.90;;;;;;5034189;28;20049;-55
2022/02/14 06:41:28;;;;;;;8.82;2.83;;;10.50;86.10;;;;;;5008897;28;20045;-52
2022/02/14 06:43:54;;;;;;;7.13;2.53;;;10.50;86.00;;;;;;5033127;28;20048;-53
2022/02/14 06:46:21;;;;;;;6.07;2.67;;;10.50;85.90;;;;;;5034138;28;20047;-53
2022/02/14 06:48:47;;;;;;;6.85;2.70;;;10.50;85.90;;;;;;5033943;28;20052;-55
2022/02/14 06:51:13;;;;;;;5.88;2.60;;;10.60;85.70;;;;;;5016180;28;20049;-54
2022/02/14 06:53:38;;;;;;;7.28;2.75;;;10.50;86.30;;;;;;5034091;28;20120;-55
2022/02/14 06:56:05;;;;;;;8.75;2.70;;;10.50;86.00;;;;;;5034183;28;20470;-57
2022/02/14 06:58:39;;;;;;;8.43;2.53;;;10.50;86.60;;;;;;5034084;28;20172;-57
2022/02/14 07:01:05;;;;;;;5.32;2.33;;;10.50;86.20;;;;;;5033652;28;20107;-55
2022/02/14 07:03:31;;;;;;;6.70;2.55;;;10.60;86.20;;;;;;5033207;28;20116;-55
2022/02/14 07:05:57;;;;;;;7.15;2.85;;;10.50;86.40;;;;;;5033520;28;20472;-54
2022/02/14 07:08:22;;;;;;;8.10;2.80;;;10.50;86.90;;;;;;5031604;28;20087;-55
2022/02/14 07:10:48;;;;;;;8.77;3.67;;;10.50;87.10;;;;;;5027424;28;20037;-52
2022/02/14 07:13:14;;;;;;;6.75;2.50;;;10.50;87.10;;;;;;5024790;28;20046;-55
2022/02/14 07:15:39;;;;;;;8.63;2.67;;;10.50;87.70;;;;;;5020981;28;20088;-57
2022/02/14 07:18:11;;;;;;;7.78;2.53;;;10.50;87.30;;;;;;5027321;28;20048;-53
2022/02/14 07:20:36;;;;;;;7.63;2.47;;;10.40;87.70;;;;;;5033349;28;20041;-55
2022/02/14 07:23:02;;;;;;;7.18;2.60;;;10.50;87.70;;;;;;5033560;28;20479;-54
2022/02/14 07:25:28;;;;;;;8.50;2.65;;;10.50;87.40;;;;;;5033630;28;20041;-55
2022/02/14 07:27:53;;;;;;;7.50;2.60;;;10.40;87.60;;;;;;5032637;28;20034;-52
2022/02/14 07:30:19;;;;;;;4.38;2.20;;;10.50;87.50;;;;;;5028937;28;20116;-53
2022/02/14 07:32:45;;;;;;;7.03;2.53;;;10.50;87.40;;;;;;5025830;28;20049;-54
2022/02/14 07:35:11;;;;;;;9.93;2.80;;;10.50;87.50;;;;;;5012786;28;20046;-56
2022/02/14 07:37:37;;;;;;;6.22;2.45;;;10.30;88.10;;;;;;5018897;28;20029;-55
2022/02/14 07:40:03;;;;;;;8.70;2.47;;;10.40;87.70;;;;;;5018248;28;20095;-54
2022/02/14 07:42:31;;;;;;;4.97;2.10;;;10.40;88.00;;;;;;5015090;28;20457;-55
2022/02/14 07:44:57;;;;;;;6.38;2.85;;;10.50;88.30;;;;;;5016712;28;20112;-55
2022/02/14 07:47:23;;;;;;;5.00;2.65;;;10.50;88.60;;;;;;5022147;28;20128;-56
2022/02/14 07:49:49;;;;;;;6.28;2.40;;;10.40;89.20;;;;;;5020370;28;20041;-55
2022/02/14 07:52:15;;;;;;;6.68;2.70;;;10.40;89.30;;;;;;5018512;28;20122;-54
2022/02/14 07:54:41;;;;;;;6.95;2.80;;;10.40;89.20;;;;;;5020381;28;20072;-55
2022/02/14 07:57:07;;;;;;;7.60;2.28;;;10.40;90.00;;;;;;5015632;28;20446;-54
2022/02/14 07:59:33;;;;;;;6.20;2.70;;;10.40;90.10;;;;;;5015145;28;20037;-54
2022/02/14 08:01:59;;;;;;;5.65;2.65;;;10.40;90.20;;;;;;5013285;28;20042;-55
2022/02/14 08:04:25;;;;;;;5.43;2.70;;;10.30;90.60;;;;;;5015950;28;20112;-56
2022/02/14 08:06:51;;;;;;;6.80;2.40;;;10.30;90.90;;;;;;5014034;28;20521;-53
2022/02/14 08:09:17;;;;;;;5.70;2.38;;;10.40;91.00;;;;;;5015015;28;20040;-55
2022/02/14 08:11:43;;;;;;;9.52;2.28;;;10.30;91.10;;;;;;5015160;28;20445;-52
2022/02/14 08:14:09;;;;;;;6.97;2.35;;;10.30;91.30;;;;;;5015230;28;20088;-55
2022/02/14 08:16:35;;;;;;;7.78;2.53;;;10.20;91.50;;;;;;5017881;28;20049;-57
2022/02/14 08:19:01;;;;;;;9.23;2.40;;;10.30;91.60;;;;;;5015174;28;20053;-52
2022/02/14 08:21:27;;;;;;;6.35;3.25;;;10.30;91.50;;;;;;5013883;28;20049;-54
2022/02/14 08:23:53;;;;;;;7.10;2.70;;;10.30;91.70;;;;;;5014699;28;20038;-51
2022/02/14 08:26:19;;;;;;;4.22;2.17;;;10.20;92.00;;;;;;5015661;28;20087;-52
2022/02/14 08:28:45;;;;;;;6.57;2.55;;;10.20;92.50;;;;;;5016795;28;20076;-52
2022/02/14 08:31:11;;;;;;;8.07;4.60;;;10.20;92.50;;;;;;5015381;28;20491;-54
2022/02/14 08:33:37;;;;;;;5.88;2.35;;;10.10;92.90;;;;;;5013794;28;20133;-53
2022/02/14 08:36:03;;;;;;;10.18;3.30;;;10.10;93.30;;;;;;5015706;28;20116;-53
2022/02/14 08:38:31;;;;;;;5.97;2.88;;;10.10;93.30;;;;;;5013734;28;20041;-55
2022/02/14 08:40:57;;;;;;;7.70;3.42;;;10.10;93.60;;;;;;5013693;28;20072;-54
2022/02/14 08:43:22;;;;;;;6.30;3.22;;;10.10;93.60;;;;;;5016723;28;20117;-57
2022/02/14 08:45:48;;;;;;;9.25;3.78;;;10.10;93.90;;;;;;5019249;28;20121;-53
2022/02/14 08:48:14;;;;;;;14.50;8.73;;;10.10;94.30;;;;;;5012748;28;20624;-54
2022/02/14 08:50:41;;;;;;;5.32;2.65;;;10.10;94.80;;;;;;5013744;28;20103;-55
2022/02/14 08:53:08;;;;;;;6.13;3.15;;;10.00;95.10;;;;;;5011658;28;20042;-54
2022/02/14 08:55:33;;;;;;;5.43;2.47;;;10.00;95.80;;;;;;5013399;28;20041;-55
2022/02/14 08:57:59;;;;;;;6.65;2.63;;;9.90;96.30;;;;;;5017236;28;20401;-54
2022/02/14 09:00:24;;;;;;;6.70;2.72;;;9.90;97.10;;;;;;5019095;28;20041;-54
2022/02/14 09:02:50;;;;;;;6.13;2.38;;;9.80;97.50;;;;;;5016853;28;20038;-55
2022/02/14 09:05:15;;;;;;;6.50;2.65;;;9.80;98.70;;;;;;5015071;28;20032;-53
2022/02/14 09:07:41;;;;;;;7.07;2.80;;;9.80;99.60;;;;;;5013422;28;20144;-56
2022/02/14 09:10:07;;;;;;;4.10;2.05;;;9.70;99.90;;;;;;5013126;28;20040;-57
2022/02/14 09:12:33;;;;;;;5.72;2.20;;;9.60;99.90;;;;;;5012439;28;20033;-55
2022/02/14 09:14:59;;;;;;;2.58;1.70;;;9.60;99.90;;;;;;5016880;28;20155;-55
2022/02/14 09:17:26;;;;;;;4.72;2.20;;;9.50;99.90;;;;;;4980661;28;20458;-55
2022/02/14 09:19:52;;;;;;;3.03;2.28;;;9.40;99.90;;;;;;5014516;28;20029;-54
2022/02/14 09:22:18;;;;;;;3.13;2.03;;;9.30;99.90;;;;;;5014190;28;20057;-56
2022/02/14 09:24:44;;;;;;;4.07;2.40;;;9.30;99.90;;;;;;5010523;28;20128;-54
2022/02/14 09:27:10;;;;;;;4.10;2.53;;;9.30;99.90;;;;;;4999090;28;20416;-56
2022/02/14 09:29:37;;;;;;;6.53;2.42;;;9.30;99.90;;;;;;5018020;28;20033;-55
2022/02/14 09:32:03;;;;;;;6.25;3.10;;;9.30;99.90;;;;;;5015009;28;20045;-52
2022/02/14 09:34:30;;;;;;;6.35;3.30;;;9.30;99.90;;;;;;5016620;28;20042;-53
2022/02/14 09:36:56;;;;;;;5.90;3.40;;;9.40;99.90;;;;;;5021364;28;20034;-55
2022/02/14 09:39:22;;;;;;;6.13;3.75;;;9.40;99.90;;;;;;5022419;28;20108;-55
2022/02/14 09:41:48;;;;;;;5.93;3.70;;;9.40;99.90;;;;;;5021788;28;20029;-53
2022/02/14 09:44:15;;;;;;;4.53;3.50;;;9.40;99.90;;;;;;5017881;28;20041;-56
2022/02/14 09:46:42;;;;;;;6.07;3.67;;;9.50;99.90;;;;;;5019929;28;20168;-55
2022/02/14 09:49:08;;;;;;;5.68;3.28;;;9.60;99.90;;;;;;5027243;28;20029;-54
2022/02/14 09:51:35;;;;;;;5.30;3.30;;;9.60;99.90;;;;;;5019673;28;20117;-52
2022/02/14 09:54:06;;;;;;;4.70;2.83;;;9.80;99.90;;;;;;5016204;28;20042;-53
2022/02/14 09:56:35;;;;;;;4.10;2.83;;;9.90;99.90;;;;;;5021577;28;20524;-54
2022/02/14 09:59:01;;;;;;;4.88;2.70;;;9.90;99.90;;;;;;5019201;28;20049;-53
2022/02/14 10:01:28;;;;;;;7.05;3.15;;;10.00;99.90;;;;;;5024412;28;20501;-56
2022/02/14 10:03:58;;;;;;;5.60;2.55;;;10.00;99.90;;;;;;5025637;28;20049;-55
2022/02/14 10:06:29;;;;;;;7.50;3.38;;;10.00;99.90;;;;;;5024141;28;20037;-54
2022/02/14 10:09:12;;;;;;;3.92;3.05;;;10.00;99.90;;;;;;5019475;28;20041;-55
2022/02/14 10:11:55;;;;;;;5.28;3.33;;;9.90;99.90;;;;;;5022932;28;20040;-55
2022/02/14 10:14:21;;;;;;;5.30;3.47;;;9.90;99.90;;;;;;5022311;28;20046;-55
2022/02/14 10:17:00;;;;;;;8.75;3.92;;;9.90;99.90;;;;;;5023205;28;20052;-55
2022/02/14 10:19:27;;;;;;;7.93;3.97;;;10.00;99.90;;;;;;5024160;28;20073;-56
2022/02/14 10:21:54;;;;;;;6.95;3.70;;;10.00;99.90;;;;;;5021823;28;20038;-55
2022/02/14 10:24:19;;;;;;;6.10;3.63;;;10.00;99.90;;;;;;5021325;28;20034;-56
2022/02/14 10:26:49;;;;;;;6.28;3.72;;;10.00;99.90;;;;;;5027413;28;20041;-53
2022/02/14 10:29:25;;;;;;;6.38;3.60;;;10.10;99.90;;;;;;5028083;28;20048;-53
2022/02/14 10:31:56;;;;;;;7.97;3.28;;;10.10;99.90;;;;;;5030479;28;20045;-54
2022/02/14 10:34:33;;;;;;;5.32;3.55;;;10.20;99.90;;;;;;5022508;28;20048;-55
2022/02/14 10:36:58;;;;;;;6.40;3.15;;;10.20;99.90;;;;;;5021555;28;20493;-54
2022/02/14 10:39:26;;;;;;;7.07;3.47;;;10.20;99.90;;;;;;5032914;28;20037;-56
2022/02/14 10:42:00;;;;;;;4.53;3.38;;;10.30;99.90;;;;;;5033072;28;20052;-53
2022/02/14 10:47:20;;;;;;;5.90;3.45;;;10.30;99.90;;;;;;5032653;28;20116;-55
2022/02/14 10:50:02;;;;;;;5.60;3.30;;;10.30;99.90;;;;;;5023090;28;20047;-56
2022/02/14 10:52:34;;;;;;;6.70;3.30;;;10.30;99.90;;;;;;5031094;28;20038;-56
2022/02/14 10:55:00;;;;;;;5.40;3.10;;;10.30;99.90;;;;;;5028159;28;20038;-56
2022/02/14 10:57:30;;;;;;;5.85;3.50;;;10.30;99.90;;;;;;5032462;28;20042;-53
2022/02/14 11:00:08;;;;;;;6.35;3.25;;;10.30;99.90;;;;;;5034065;28;20049;-56
2022/02/14 11:02:35;;;;;;;5.68;3.03;;;10.30;99.90;;;;;;5014518;28;20569;-54
2022/02/14 11:05:01;;;;;;;5.85;3.20;;;10.30;99.90;;;;;;5018779;28;20118;-54
2022/02/14 11:07:28;;;;;;;6.95;3.53;;;10.40;99.90;;;;;;5040991;28;20416;-55
2022/02/14 11:09:56;;;;;;;6.40;3.50;;;10.30;99.90;;;;;;5036555;28;20029;-53
2022/02/14 11:12:23;;;;;;;4.85;3.15;;;10.40;99.90;;;;;;5027340;28;20562;-56
2022/02/14 11:14:55;;;;;;;8.68;3.50;;;10.40;99.90;;;;;;5021336;28;20046;-56
2022/02/14 11:17:38;;;;;;;6.33;3.10;;;10.40;99.90;;;;;;5029192;28;20037;-55
2022/02/14 11:20:08;;;;;;;5.07;2.85;;;10.40;99.90;;;;;;4999438;28;20076;-56
2022/02/14 11:22:37;;;;;;;4.20;2.85;;;10.50;99.90;;;;;;5033125;28;20033;-53
2022/02/14 11:25:15;;;;;;;6.15;3.00;;;10.40;99.90;;;;;;5033485;28;20042;-53
2022/02/14 11:27:52;;;;;;;8.32;2.90;;;10.50;99.90;;;;;;5033228;28;20512;-56
2022/02/14 11:30:18;;;;;;;5.88;2.83;;;10.50;99.90;;;;;;5033010;28;20040;-56
2022/02/14 11:33:06;;;;;;;4.57;2.60;;;10.50;99.90;;;;;;5030560;28;20037;-55
2022/02/14 11:35:31;;;;;;;7.22;3.17;;;10.50;99.90;;;;;;5024151;28;20092;-54
2022/02/14 11:38:00;;;;;;;6.50;3.00;;;10.50;99.90;;;;;;5021499;28;20101;-53
2022/02/14 11:40:32;;;;;;;5.45;2.88;;;10.50;99.90;;;;;;5026982;28;20030;-54
2022/02/14 11:43:34;;;;;;;7.97;3.13;;;10.50;99.90;;;;;;5025006;28;20099;-54
2022/02/14 11:46:10;;;;;;;6.90;2.45;;;10.60;99.90;;;;;;5010507;28;20291;-56
2022/02/14 11:48:36;;;;;;;6.13;3.15;;;10.60;99.90;;;;;;5024611;28;20116;-53
2022/02/14 11:51:10;;;;;;;6.05;2.90;;;10.60;99.90;;;;;;5021449;28;20551;-53
2022/02/14 11:53:41;;;;;;;7.90;3.10;;;10.60;99.90;;;;;;5029570;28;20049;-56
2022/02/14 11:56:22;;;;;;;5.28;2.55;;;10.60;99.90;;;;;;5024889;28;20049;-56
2022/02/14 11:59:17;;;;;;;4.93;2.55;;;10.60;99.90;;;;;;5026448;28;20053;-54
2022/02/14 12:01:51;;;;;;;6.70;2.65;;;10.50;99.90;;;;;;5022526;28;20044;-55
2022/02/14 12:04:32;;;;;;;5.10;2.70;;;10.50;99.90;;;;;;5029073;28;20502;-53
2022/02/14 12:07:13;;;;;;;4.70;2.92;;;10.50;99.90;;;;;;5028959;28;20036;-54
2022/02/14 12:09:57;;;;;;;5.45;3.05;;;10.50;99.90;;;;;;5028845;28;20063;-55
2022/02/14 12:13:04;;;;;;;6.65;2.10;;;10.40;99.90;;;;;;5027121;28;20037;-59
2022/02/14 12:21:01;;;;;;;;;;;10.50;99.90;;;;;;5020228;28;20124;-54
2022/02/14 12:23:42;;;;;;;4.93;1.90;;;10.60;99.30;;;;;;5019590;28;20309;-56
2022/02/14 12:26:14;;;;;;;5.22;1.80;;;10.60;98.90;;;;;;5020263;28;20034;-55
2022/02/14 12:28:43;;;;;;;4.32;1.75;;;10.70;97.90;;;;;;5017858;28;20040;-56
2022/02/14 12:31:09;;;;;;;6.93;1.73;;;10.70;97.50;;;;;;5012597;28;20049;-54
2022/02/14 12:33:35;;;;;;;2.72;1.42;;;10.70;97.00;;;;;;5017406;28;20037;-54
2022/02/14 12:36:07;;;;;;;4.55;1.30;;;10.70;96.20;;;;;;5014010;28;20040;-54
2022/02/14 12:38:35;;;;;;;3.78;1.50;;;10.70;96.00;;;;;;5020067;28;20136;-57
2022/02/14 12:41:04;;;;;;;4.50;1.30;;;10.60;96.40;;;;;;5002327;28;20052;-56
2022/02/14 12:43:44;;;;;;;3.88;1.80;;;10.60;96.00;;;;;;5014572;28;20049;-56
2022/02/14 12:46:22;;;;;;;5.57;2.10;;;10.50;96.50;;;;;;5015149;28;20033;-56
2022/02/14 12:48:51;;;;;;;5.40;2.00;;;10.50;96.90;;;;;;5021438;28;20038;-55
2022/02/14 12:51:31;;;;;;;6.88;2.53;;;10.50;97.40;;;;;;5014336;28;20034;-57
2022/02/14 12:53:57;;;;;;;7.47;2.45;;;10.50;97.70;;;;;;5012072;28;20033;-56
2022/02/14 12:56:31;;;;;;;5.65;2.45;;;10.50;97.60;;;;;;5013511;28;20051;-57
2022/02/14 12:59:05;;;;;;;7.47;2.42;;;10.60;97.70;;;;;;5014070;28;20041;-57
2022/02/14 13:01:39;;;;;;;6.38;2.40;;;10.60;97.50;;;;;;5002770;28;20473;-57
2022/02/14 13:04:10;;;;;;;9.73;2.58;;;10.60;98.10;;;;;;5018355;28;20049;-56
2022/02/14 13:06:49;;;;;;;7.80;2.05;;;10.70;98.00;;;;;;5018466;28;20083;-53
2022/02/14 13:09:22;;;;;;;8.15;2.00;;;10.60;97.00;;;;;;5015879;28;20042;-58
2022/02/14 13:11:49;;;;;;;4.97;1.90;;;10.60;96.50;;;;;;5024288;28;20117;-55
2022/02/14 13:14:33;;;;;;;8.57;1.98;;;10.60;96.80;;;;;;5024043;28;20056;-56
2022/02/14 13:17:05;;;;;;;4.65;1.88;;;10.60;95.90;;;;;;5009133;28;20042;-58
2022/02/14 13:19:30;;;;;;;2.97;1.63;;;10.60;96.30;;;;;;5022457;28;20053;-54
2022/02/14 13:22:25;;;;;;;5.25;1.75;;;10.60;96.70;;;;;;5023247;28;20236;-52
2022/02/14 13:24:56;;;;;;;2.92;1.40;;;10.60;96.10;;;;;;5017154;28;20124;-55
2022/02/14 13:27:27;;;;;;;6.80;1.45;;;10.60;95.70;;;;;;5012230;28;20157;-53
2022/02/14 13:29:54;;;;;;;5.25;1.20;;;10.50;95.00;;;;;;5020264;28;20560;-55
2022/02/14 13:32:30;;;;;;;7.82;1.50;;;10.50;94.40;;;;;;5026466;28;20405;-56
2022/02/14 13:35:14;;;;;;;1.98;1.10;;;10.50;93.70;;;;;;5028926;28;20049;-52
2022/02/14 13:38:20;;;;;;;1.95;1.13;;;10.40;93.40;;;;;;5036042;28;20053;-54
2022/02/14 13:40:55;;;;;;;4.00;1.17;;;10.40;93.20;;;;;;5013835;28;20045;-55
2022/02/14 13:43:27;;;;;;;5.47;1.20;;;10.40;93.30;;;;;;5012059;28;20128;-55
2022/02/14 13:45:55;;;;;;;4.63;1.20;;;10.50;93.10;;;;;;5024018;28;20036;-55
2022/02/14 13:48:26;;;;;;;5.85;1.17;;;10.50;92.80;;;;;;5019432;28;20045;-56
2022/02/14 13:50:55;;;;;;;4.85;1.50;;;10.50;92.20;;;;;;5019982;28;20103;-56
2022/02/14 13:53:24;;;;;;;5.10;1.50;;;10.50;92.10;;;;;;5022766;28;20046;-54
2022/02/14 13:56:07;;;;;;;3.78;1.30;;;10.50;92.10;;;;;;5016079;28;20048;-55
2022/02/14 13:58:36;;;;;;;6.63;1.50;;;10.50;91.90;;;;;;5033203;28;20042;-56
2022/02/14 14:01:32;;;;;;;5.97;1.73;;;10.40;92.20;;;;;;5019037;28;20049;-55
2022/02/14 14:04:18;;;;;;;4.90;1.52;;;10.40;92.70;;;;;;5005798;28;20072;-55
2022/02/14 14:06:43;;;;;;;4.70;1.20;;;10.30;92.50;;;;;;5022894;28;20033;-55
2022/02/14 14:09:20;;;;;;;2.65;0.98;;;10.30;92.40;;;;;;5017714;28;20095;-55
2022/02/14 14:11:46;;;;;;;4.20;1.30;;;10.30;92.60;;;;;;5021328;28;20041;-54
2022/02/14 14:14:32;;;;;;;5.57;1.33;;;10.30;92.10;;;;;;5026668;28;20050;-55
2022/02/14 14:16:57;;;;;;;4.15;1.38;;;10.30;92.00;;;;;;5020338;28;20045;-55
2022/02/14 14:19:24;;;;;;;3.45;1.20;;;10.30;91.90;;;;;;5019678;28;20037;-54
2022/02/14 14:21:51;;;;;;;9.52;1.60;;;10.30;92.10;;;;;;5019212;28;20084;-55
2022/02/14 14:24:17;;;;;;;5.80;1.98;;;10.20;92.20;;;;;;5021140;28;20046;-54
2022/02/14 14:26:43;;;;;;;7.30;1.35;;;10.20;92.30;;;;;;5017556;28;20437;-55
2022/02/14 14:29:09;;;;;;;3.17;1.20;;;10.30;92.40;;;;;;5024335;28;20033;-55
2022/02/14 14:31:36;;;;;;;4.97;0.90;;;10.40;92.50;;;;;;5018077;28;20033;-55
2022/02/14 14:34:02;;;;;;;4.43;1.23;;;10.50;91.80;;;;;;5020626;28;20046;-55
2022/02/14 14:36:28;;;;;;;4.47;1.20;;;10.50;90.70;;;;;;5022912;28;20034;-55
2022/02/14 14:38:54;;;;;;;7.20;1.65;;;10.60;90.20;;;;;;5022669;28;20076;-55
2022/02/14 14:41:19;;;;;;;2.38;0.90;;;10.60;90.10;;;;;;5018490;28;20049;-55
2022/02/14 14:43:45;;;;;;;4.18;1.20;;;10.60;89.80;;;;;;5023806;28;20065;-55
2022/02/14 14:46:13;;;;;;;9.23;1.60;;;10.60;90.10;;;;;;5023494;28;20353;-56
2022/02/14 14:48:38;;;;;;;4.50;1.17;;;10.60;90.10;;;;;;5023936;28;20495;-55
2022/02/14 14:51:04;;;;;;;5.53;1.00;;;10.60;88.60;;;;;;5018064;28;20084;-54
2022/02/14 14:53:30;;;;;;;5.70;1.27;;;10.60;88.50;;;;;;5023652;28;20038;-55
2022/02/14 14:55:56;;;;;;;3.10;0.82;;;10.50;88.10;;;;;;5026698;28;20069;-55
2022/02/14 14:58:21;;;;;;;5.13;1.10;;;10.50;88.60;;;;;;5027820;28;20033;-54
2022/02/14 15:00:47;;;;;;;7.20;1.20;;;10.60;87.70;;;;;;5020276;28;20045;-55
2022/02/14 15:03:13;;;;;;;2.92;1.08;;;10.50;86.90;;;;;;5024149;28;20499;-55
2022/02/14 15:05:39;;;;;;;5.60;1.17;;;10.50;86.70;;;;;;5003056;28;20041;-55
2022/02/14 15:08:05;;;;;;;5.45;1.17;;;10.40;86.10;;;;;;5020105;28;20030;-55
2022/02/14 15:10:31;;;;;;;3.53;1.20;;;10.40;86.60;;;;;;5018779;28;20084;-55
2022/02/14 15:12:58;;;;;;;3.88;1.17;;;10.40;86.90;;;;;;5017884;28;20045;-55
2022/02/14 15:15:24;;;;;;;5.65;1.30;;;10.40;87.50;;;;;;5017385;28;20041;-55